KLND/LND METAR and TAF weather

Enter ICAO airport designator
Station Type Date Time Source
KLND METAR 2019/10/15 19:53 UTC NOAA

KLND 151953Z AUTO VRB03KT 10SM CLR 12/M03 A3019 RMK AO2 SLP208 T01221028


Station Type Date Time Source
KLND Decoded METAR 2019/10/15 19:53 UTC NOAA

LANDER HUNT FIELD, WY, United States (KLND) 42-49N 108-44W 1694M
Oct 15, 2019 - 03:53 PM EDT / 2019.10.15 1953 UTC
Wind: Variable at 3 MPH (3 KT):0
Visibility: 10 mile(s):0
Sky conditions: clear
Temperature: 54.0 F (12.2 C)
Dew Point: 27.0 F (-2.8 C)
Relative Humidity: 35%
Pressure (altimeter): 30.19 in. Hg (1022 hPa)
ob: KLND 151953Z AUTO VRB03KT 10SM CLR 12/M03 A3019 RMK AO2 SLP208 T01221028
cycle: 20

Station Type Date Time Source
KLND TAF 2019/10/15 18:30 UTC NOAA

TAF KLND 151726Z 1518/1618 06007KT P6SM SKC
FM160200 VRB04KT P6SM SKC

Example: see airport list